sensor_id;sensor_type;location;lat;lon;timestamp;pressure;altitude;pressure_sealevel;temperature;humidity
11710;BME280;5911;51.036;6.972;2023-08-24T00:00:52;100976.22;;;22.03;100.00
11710;BME280;5911;51.036;6.972;2023-08-24T00:03:20;100979.94;;;22.02;100.00
11710;BME280;5911;51.036;6.972;2023-08-24T00:05:49;100975.59;;;22.01;100.00
11710;BME280;5911;51.036;6.972;2023-08-24T00:08:19;100976.78;;;21.98;100.00
11710;BME280;5911;51.036;6.972;2023-08-24T00:10:47;100968.91;;;21.97;100.00
11710;BME280;5911;51.036;6.972;2023-08-24T00:13:14;100965.50;;;21.88;100.00
11710;BME280;5911;51.036;6.972;2023-08-24T00:15:42;100963.94;;;21.94;100.00
11710;BME280;5911;51.036;6.972;2023-08-24T00:18:10;100963.84;;;21.87;100.00
11710;BME280;5911;51.036;6.972;2023-08-24T00:20:38;100965.03;;;21.85;100.00
11710;BME280;5911;51.036;6.972;2023-08-24T00:23:05;100972.50;;;21.83;100.00
11710;BME280;5911;51.036;6.972;2023-08-24T00:25:34;100967.13;;;21.83;100.00
11710;BME280;5911;51.036;6.972;2023-08-24T00:28:02;100960.25;;;21.80;100.00
11710;BME280;5911;51.036;6.972;2023-08-24T00:30:30;100968.31;;;21.80;100.00
11710;BME280;5911;51.036;6.972;2023-08-24T00:32:58;100962.31;;;21.78;100.00
11710;BME280;5911;51.036;6.972;2023-08-24T00:35:26;100957.13;;;21.76;100.00
11710;BME280;5911;51.036;6.972;2023-08-24T00:37:54;100962.13;;;21.80;100.00
11710;BME280;5911;51.036;6.972;2023-08-24T00:40:23;100960.63;;;21.77;100.00
11710;BME280;5911;51.036;6.972;2023-08-24T00:42:52;100952.97;;;21.74;100.00
11710;BME280;5911;51.036;6.972;2023-08-24T00:45:20;100952.91;;;21.67;100.00
11710;BME280;5911;51.036;6.972;2023-08-24T00:47:48;100952.25;;;21.65;100.00
11710;BME280;5911;51.036;6.972;2023-08-24T00:50:17;100944.56;;;21.62;100.00
11710;BME280;5911;51.036;6.972;2023-08-24T00:52:46;100951.16;;;21.60;100.00
11710;BME280;5911;51.036;6.972;2023-08-24T00:55:15;100956.59;;;21.66;100.00
11710;BME280;5911;51.036;6.972;2023-08-24T00:57:44;100960.31;;;21.65;100.00
11710;BME280;5911;51.036;6.972;2023-08-24T01:00:14;100952.25;;;21.65;100.00
11710;BME280;5911;51.036;6.972;2023-08-24T01:02:42;100933.81;;;21.62;100.00
11710;BME280;5911;51.036;6.972;2023-08-24T01:05:10;100933.00;;;21.62;100.00
11710;BME280;5911;51.036;6.972;2023-08-24T01:07:39;100933.19;;;21.60;100.00
11710;BME280;5911;51.036;6.972;2023-08-24T01:10:09;100935.88;;;21.60;100.00
11710;BME280;5911;51.036;6.972;2023-08-24T01:12:48;100934.84;;;21.61;100.00
11710;BME280;5911;51.036;6.972;2023-08-24T01:15:25;100928.66;;;21.61;100.00
11710;BME280;5911;51.036;6.972;2023-08-24T01:18:03;100920.97;;;21.58;100.00
11710;BME280;5911;51.036;6.972;2023-08-24T01:24:40;100932.06;;;21.55;100.00
11710;BME280;5911;51.036;6.972;2023-08-24T01:27:12;100932.28;;;21.53;100.00
11710;BME280;5911;51.036;6.972;2023-08-24T01:29:41;100931.25;;;21.54;100.00
11710;BME280;5911;51.036;6.972;2023-08-24T01:32:10;100938.28;;;21.55;100.00
11710;BME280;5911;51.036;6.972;2023-08-24T01:34:38;100940.78;;;21.57;100.00
11710;BME280;5911;51.036;6.972;2023-08-24T01:37:06;100946.97;;;21.57;100.00
11710;BME280;5911;51.036;6.972;2023-08-24T01:39:41;100945.31;;;21.56;100.00
11710;BME280;5911;51.036;6.972;2023-08-24T01:42:15;100940.97;;;21.55;100.00
11710;BME280;5911;51.036;6.972;2023-08-24T01:44:49;100934.13;;;21.53;100.00
11710;BME280;5911;51.036;6.972;2023-08-24T01:47:18;100934.97;;;21.53;100.00
11710;BME280;5911;51.036;6.972;2023-08-24T01:49:46;100938.03;;;21.50;100.00
11710;BME280;5911;51.036;6.972;2023-08-24T01:52:14;100924.59;;;21.50;100.00
11710;BME280;5911;51.036;6.972;2023-08-24T01:54:42;100909.78;;;21.39;100.00
11710;BME280;5911;51.036;6.972;2023-08-24T01:57:12;100910.91;;;21.45;100.00
11710;BME280;5911;51.036;6.972;2023-08-24T01:59:39;100908.88;;;21.47;100.00
11710;BME280;5911;51.036;6.972;2023-08-24T02:02:07;100904.34;;;21.48;100.00
11710;BME280;5911;51.036;6.972;2023-08-24T02:04:35;100898.50;;;21.44;100.00
11710;BME280;5911;51.036;6.972;2023-08-24T02:07:02;100898.03;;;21.40;100.00
11710;BME280;5911;51.036;6.972;2023-08-24T02:09:30;100888.13;;;21.41;100.00
11710;BME280;5911;51.036;6.972;2023-08-24T02:11:58;100890.19;;;21.39;100.00
11710;BME280;5911;51.036;6.972;2023-08-24T02:14:27;100883.78;;;21.40;100.00
11710;BME280;5911;51.036;6.972;2023-08-24T02:16:55;100893.50;;;21.41;100.00
11710;BME280;5911;51.036;6.972;2023-08-24T02:19:23;100895.34;;;21.40;100.00
11710;BME280;5911;51.036;6.972;2023-08-24T02:21:51;100894.53;;;21.40;100.00
11710;BME280;5911;51.036;6.972;2023-08-24T02:24:18;100888.72;;;21.36;100.00
11710;BME280;5911;51.036;6.972;2023-08-24T02:26:46;100894.34;;;21.41;100.00
11710;BME280;5911;51.036;6.972;2023-08-24T02:29:14;100882.53;;;21.36;100.00
11710;BME280;5911;51.036;6.972;2023-08-24T02:31:43;100891.59;;;21.35;100.00
11710;BME280;5911;51.036;6.972;2023-08-24T02:34:13;100886.41;;;21.33;100.00
11710;BME280;5911;51.036;6.972;2023-08-24T02:36:40;100888.25;;;21.33;100.00
11710;BME280;5911;51.036;6.972;2023-08-24T02:39:08;100897.16;;;21.33;100.00
11710;BME280;5911;51.036;6.972;2023-08-24T02:41:36;100885.56;;;21.33;100.00
11710;BME280;5911;51.036;6.972;2023-08-24T02:44:04;100882.72;;;21.34;100.00
11710;BME280;5911;51.036;6.972;2023-08-24T02:46:32;100883.72;;;21.33;100.00
11710;BME280;5911;51.036;6.972;2023-08-24T02:49:02;100879.38;;;21.32;100.00
11710;BME280;5911;51.036;6.972;2023-08-24T02:51:29;100882.06;;;21.32;100.00
11710;BME280;5911;51.036;6.972;2023-08-24T02:53:58;100885.56;;;21.33;100.00
11710;BME280;5911;51.036;6.972;2023-08-24T02:56:26;100890.94;;;21.33;100.00
11710;BME280;5911;51.036;6.972;2023-08-24T02:58:54;100890.13;;;21.32;100.00
11710;BME280;5911;51.036;6.972;2023-08-24T03:01:21;100883.09;;;21.31;100.00
11710;BME280;5911;51.036;6.972;2023-08-24T03:03:49;100891.78;;;21.33;100.00
11710;BME280;5911;51.036;6.972;2023-08-24T03:06:18;100886.88;;;21.37;100.00
11710;BME280;5911;51.036;6.972;2023-08-24T03:08:46;100870.69;;;21.30;100.00
11710;BME280;5911;51.036;6.972;2023-08-24T03:11:13;100876.13;;;21.37;100.00
11710;BME280;5911;51.036;6.972;2023-08-24T03:13:41;100869.94;;;21.36;100.00
11710;BME280;5911;51.036;6.972;2023-08-24T03:16:09;100871.38;;;21.39;100.00
11710;BME280;5911;51.036;6.972;2023-08-24T03:18:37;100885.28;;;21.42;100.00
11710;BME280;5911;51.036;6.972;2023-08-24T03:21:05;100882.41;;;21.44;100.00
11710;BME280;5911;51.036;6.972;2023-08-24T03:23:35;100891.09;;;21.46;100.00
11710;BME280;5911;51.036;6.972;2023-08-24T03:26:03;100884.53;;;21.49;100.00
11710;BME280;5911;51.036;6.972;2023-08-24T03:28:32;100881.66;;;21.50;100.00
11710;BME280;5911;51.036;6.972;2023-08-24T03:31:00;100875.81;;;21.47;100.00
11710;BME280;5911;51.036;6.972;2023-08-24T03:33:28;100872.94;;;21.48;100.00
11710;BME280;5911;51.036;6.972;2023-08-24T03:35:57;100871.28;;;21.47;100.00
11710;BME280;5911;51.036;6.972;2023-08-24T03:38:24;100882.03;;;21.47;100.00
11710;BME280;5911;51.036;6.972;2023-08-24T03:41:00;100886.19;;;21.50;100.00
11710;BME280;5911;51.036;6.972;2023-08-24T03:43:31;100884.44;;;21.42;100.00
11710;BME280;5911;51.036;6.972;2023-08-24T03:45:59;100913.28;;;21.55;100.00
11710;BME280;5911;51.036;6.972;2023-08-24T03:48:27;100914.25;;;21.47;100.00
11710;BME280;5911;51.036;6.972;2023-08-24T03:50:55;100927.28;;;21.50;100.00
11710;BME280;5911;51.036;6.972;2023-08-24T03:53:22;100934.88;;;21.47;100.00
11710;BME280;5911;51.036;6.972;2023-08-24T03:55:51;100945.63;;;21.47;100.00
11710;BME280;5911;51.036;6.972;2023-08-24T03:58:21;100942.75;;;21.48;100.00
11710;BME280;5911;51.036;6.972;2023-08-24T04:00:51;100932.00;;;21.48;100.00
11710;BME280;5911;51.036;6.972;2023-08-24T04:03:20;100929.69;;;21.45;100.00
11710;BME280;5911;51.036;6.972;2023-08-24T04:05:48;100922.09;;;21.49;100.00
11710;BME280;5911;51.036;6.972;2023-08-24T04:08:16;100916.56;;;21.50;100.00
11710;BME280;5911;51.036;6.972;2023-08-24T04:10:44;100920.91;;;21.51;100.00
11710;BME280;5911;51.036;6.972;2023-08-24T04:13:12;100920.72;;;21.53;100.00
11710;BME280;5911;51.036;6.972;2023-08-24T04:15:41;100925.06;;;21.54;100.00
11710;BME280;5911;51.036;6.972;2023-08-24T04:18:08;100917.81;;;21.54;100.00
11710;BME280;5911;51.036;6.972;2023-08-24T04:20:37;100903.97;;;21.51;100.00
11710;BME280;5911;51.036;6.972;2023-08-24T04:23:05;100906.06;;;21.55;100.00
11710;BME280;5911;51.036;6.972;2023-08-24T04:25:33;100897.75;;;21.50;100.00
11710;BME280;5911;51.036;6.972;2023-08-24T04:28:01;100892.03;;;21.53;100.00
11710;BME280;5911;51.036;6.972;2023-08-24T04:30:35;100883.31;;;21.51;100.00
11710;BME280;5911;51.036;6.972;2023-08-24T04:33:11;100877.94;;;21.51;100.00
11710;BME280;5911;51.036;6.972;2023-08-24T04:35:39;100881.28;;;21.53;100.00
11710;BME280;5911;51.036;6.972;2023-08-24T04:38:06;100889.94;;;21.55;100.00
11710;BME280;5911;51.036;6.972;2023-08-24T04:40:46;100897.81;;;21.57;100.00
11710;BME280;5911;51.036;6.972;2023-08-24T04:43:13;100901.53;;;21.56;100.00
11710;BME280;5911;51.036;6.972;2023-08-24T04:45:41;100891.63;;;21.56;100.00
11710;BME280;5911;51.036;6.972;2023-08-24T04:48:14;100886.25;;;21.56;100.00
11710;BME280;5911;51.036;6.972;2023-08-24T04:50:43;100867.84;;;21.53;100.00
11710;BME280;5911;51.036;6.972;2023-08-24T04:53:14;100863.88;;;21.49;100.00
11710;BME280;5911;51.036;6.972;2023-08-24T04:55:42;100830.00;;;21.48;100.00
11710;BME280;5911;51.036;6.972;2023-08-24T04:58:11;100822.13;;;21.47;100.00
11710;BME280;5911;51.036;6.972;2023-08-24T05:00:39;100827.03;;;21.43;100.00
11710;BME280;5911;51.036;6.972;2023-08-24T05:03:07;100831.13;;;21.39;100.00
11710;BME280;5911;51.036;6.972;2023-08-24T05:05:38;100822.47;;;21.37;100.00
11710;BME280;5911;51.036;6.972;2023-08-24T05:08:06;100832.53;;;21.35;100.00
11710;BME280;5911;51.036;6.972;2023-08-24T05:10:39;100819.13;;;21.35;100.00
11710;BME280;5911;51.036;6.972;2023-08-24T05:13:07;100829.03;;;21.34;100.00
11710;BME280;5911;51.036;6.972;2023-08-24T05:15:34;100806.72;;;21.34;100.00
11710;BME280;5911;51.036;6.972;2023-08-24T05:18:02;100800.53;;;21.33;100.00
11710;BME280;5911;51.036;6.972;2023-08-24T05:20:30;100816.81;;;21.32;100.00
11710;BME280;5911;51.036;6.972;2023-08-24T05:22:59;100813.75;;;21.35;100.00
11710;BME280;5911;51.036;6.972;2023-08-24T05:25:27;100813.75;;;21.35;100.00
11710;BME280;5911;51.036;6.972;2023-08-24T05:27:54;100805.53;;;21.36;100.00
11710;BME280;5911;51.036;6.972;2023-08-24T05:30:22;100820.78;;;21.36;100.00
11710;BME280;5911;51.036;6.972;2023-08-24T05:32:50;100817.47;;;21.34;100.00
11710;BME280;5911;51.036;6.972;2023-08-24T05:35:18;100804.03;;;21.34;100.00
11710;BME280;5911;51.036;6.972;2023-08-24T05:37:46;100805.53;;;21.36;100.00
11710;BME280;5911;51.036;6.972;2023-08-24T05:40:15;100796.38;;;21.31;100.00
11710;BME280;5911;51.036;6.972;2023-08-24T05:42:43;100792.28;;;21.35;100.00
11710;BME280;5911;51.036;6.972;2023-08-24T05:45:11;100798.69;;;21.34;100.00
11710;BME280;5911;51.036;6.972;2023-08-24T05:47:39;100806.72;;;21.34;100.00
11710;BME280;5911;51.036;6.972;2023-08-24T05:50:07;100797.94;;;21.25;100.00
11710;BME280;5911;51.036;6.972;2023-08-24T05:52:35;100794.97;;;21.35;100.00
11710;BME280;5911;51.036;6.972;2023-08-24T05:55:03;100776.19;;;21.35;100.00
11710;BME280;5911;51.036;6.972;2023-08-24T05:57:32;100770.81;;;21.35;100.00
11710;BME280;5911;51.036;6.972;2023-08-24T06:00:00;100769.59;;;21.37;100.00
11710;BME280;5911;51.036;6.972;2023-08-24T06:02:38;100767.75;;;21.38;100.00
11710;BME280;5911;51.036;6.972;2023-08-24T06:05:07;100765.31;;;21.43;100.00
11710;BME280;5911;51.036;6.972;2023-08-24T06:07:35;100765.56;;;21.48;100.00
11710;BME280;5911;51.036;6.972;2023-08-24T06:10:04;100760.00;;;21.50;100.00
11710;BME280;5911;51.036;6.972;2023-08-24T06:12:33;100766.84;;;21.52;100.00
11710;BME280;5911;51.036;6.972;2023-08-24T06:15:01;100751.13;;;21.49;100.00
11710;BME280;5911;51.036;6.972;2023-08-24T06:17:31;100757.78;;;21.53;100.00
11710;BME280;5911;51.036;6.972;2023-08-24T06:19:58;100747.22;;;21.52;100.00
11710;BME280;5911;51.036;6.972;2023-08-24T06:22:26;100741.69;;;21.53;100.00
11710;BME280;5911;51.036;6.972;2023-08-24T06:24:54;100743.31;;;21.54;100.00
11710;BME280;5911;51.036;6.972;2023-08-24T06:27:26;100738.72;;;21.48;100.00
11710;BME280;5911;51.036;6.972;2023-08-24T06:29:55;100720.97;;;21.47;100.00
11710;BME280;5911;51.036;6.972;2023-08-24T06:32:22;100729.28;;;21.52;100.00
11710;BME280;5911;51.036;6.972;2023-08-24T06:34:50;100730.94;;;21.53;100.00
11710;BME280;5911;51.036;6.972;2023-08-24T06:37:18;100718.66;;;21.44;100.00
11710;BME280;5911;51.036;6.972;2023-08-24T06:39:46;100723.91;;;21.52;100.00
11710;BME280;5911;51.036;6.972;2023-08-24T06:42:13;100707.78;;;21.52;100.00
11710;BME280;5911;51.036;6.972;2023-08-24T06:44:41;100696.59;;;21.49;100.00
11710;BME280;5911;51.036;6.972;2023-08-24T06:47:10;100696.44;;;21.57;100.00
11710;BME280;5911;51.036;6.972;2023-08-24T06:49:38;100691.91;;;21.57;100.00
11710;BME280;5911;51.036;6.972;2023-08-24T06:52:05;100690.06;;;21.58;100.00
11710;BME280;5911;51.036;6.972;2023-08-24T06:54:34;100686.16;;;21.60;100.00
11710;BME280;5911;51.036;6.972;2023-08-24T06:57:02;100693.81;;;21.63;100.00
11710;BME280;5911;51.036;6.972;2023-08-24T06:59:30;100686.41;;;21.65;100.00
11710;BME280;5911;51.036;6.972;2023-08-24T07:01:58;100687.06;;;21.67;100.00
11710;BME280;5911;51.036;6.972;2023-08-24T07:04:27;100690.34;;;21.69;100.00
11710;BME280;5911;51.036;6.972;2023-08-24T07:06:56;100688.50;;;21.70;100.00
11710;BME280;5911;51.036;6.972;2023-08-24T07:09:24;100683.38;;;21.75;100.00
11710;BME280;5911;51.036;6.972;2023-08-24T07:11:51;100680.50;;;21.76;100.00
11710;BME280;5911;51.036;6.972;2023-08-24T07:14:19;100687.97;;;21.81;100.00
11710;BME280;5911;51.036;6.972;2023-08-24T07:16:47;100685.09;;;21.83;100.00
11710;BME280;5911;51.036;6.972;2023-08-24T07:19:14;100677.03;;;21.83;100.00
11710;BME280;5911;51.036;6.972;2023-08-24T07:21:44;100686.78;;;21.90;100.00
11710;BME280;5911;51.036;6.972;2023-08-24T07:24:12;100684.91;;;21.91;100.00
11710;BME280;5911;51.036;6.972;2023-08-24T07:26:40;100670.84;;;21.89;100.00
11710;BME280;5911;51.036;6.972;2023-08-24T07:29:08;100660.75;;;21.91;100.00
11710;BME280;5911;51.036;6.972;2023-08-24T07:31:35;100675.06;;;21.98;100.00
11710;BME280;5911;51.036;6.972;2023-08-24T07:34:05;100661.88;;;22.03;100.00
11710;BME280;5911;51.036;6.972;2023-08-24T07:36:32;100666.84;;;22.06;100.00
11710;BME280;5911;51.036;6.972;2023-08-24T07:39:02;100665.00;;;22.06;100.00
11710;BME280;5911;51.036;6.972;2023-08-24T07:41:29;100669.38;;;22.14;100.00
11710;BME280;5911;51.036;6.972;2023-08-24T07:43:58;100667.31;;;22.16;100.00
11710;BME280;5911;51.036;6.972;2023-08-24T07:46:28;100669.22;;;22.22;100.00
11710;BME280;5911;51.036;6.972;2023-08-24T07:48:56;100664.06;;;22.27;100.00
11710;BME280;5911;51.036;6.972;2023-08-24T07:51:26;100659.09;;;22.24;100.00
11710;BME280;5911;51.036;6.972;2023-08-24T07:53:54;100656.22;;;22.26;100.00
11710;BME280;5911;51.036;6.972;2023-08-24T07:56:23;100662.03;;;22.36;100.00
11710;BME280;5911;51.036;6.972;2023-08-24T07:58:51;100671.16;;;22.41;100.00
11710;BME280;5911;51.036;6.972;2023-08-24T08:01:19;100670.34;;;22.48;100.00
11710;BME280;5911;51.036;6.972;2023-08-24T08:03:49;100662.06;;;22.49;100.00
11710;BME280;5911;51.036;6.972;2023-08-24T08:06:16;100656.06;;;22.47;100.00
11710;BME280;5911;51.036;6.972;2023-08-24T08:08:44;100676.81;;;22.60;100.00
11710;BME280;5911;51.036;6.972;2023-08-24T08:11:13;100674.13;;;22.60;100.00
11710;BME280;5911;51.036;6.972;2023-08-24T08:13:42;100661.50;;;22.67;100.00
11710;BME280;5911;51.036;6.972;2023-08-24T08:16:09;100675.81;;;22.74;100.00
11710;BME280;5911;51.036;6.972;2023-08-24T08:18:38;100663.63;;;22.78;100.00
11710;BME280;5911;51.036;6.972;2023-08-24T08:21:09;100672.75;;;22.84;100.00
11710;BME280;5911;51.036;6.972;2023-08-24T08:23:37;100661.78;;;22.85;100.00
11710;BME280;5911;51.036;6.972;2023-08-24T08:26:07;100669.25;;;22.90;100.00
11710;BME280;5911;51.036;6.972;2023-08-24T08:28:35;100661.41;;;22.88;100.00
11710;BME280;5911;51.036;6.972;2023-08-24T08:31:04;100662.63;;;22.92;100.00
11710;BME280;5911;51.036;6.972;2023-08-24T08:33:32;100653.09;;;22.96;100.00
11710;BME280;5911;51.036;6.972;2023-08-24T08:36:00;100642.78;;;23.00;100.00
11710;BME280;5911;51.036;6.972;2023-08-24T08:38:27;100642.34;;;23.09;100.00
11710;BME280;5911;51.036;6.972;2023-08-24T08:40:56;100630.16;;;23.13;100.00
11710;BME280;5911;51.036;6.972;2023-08-24T08:43:29;100637.41;;;23.20;100.00
11710;BME280;5911;51.036;6.972;2023-08-24T08:45:58;100640.09;;;23.26;100.00
11710;BME280;5911;51.036;6.972;2023-08-24T08:48:30;100635.31;;;23.28;100.00
11710;BME280;5911;51.036;6.972;2023-08-24T08:50:58;100627.47;;;23.33;100.00
11710;BME280;5911;51.036;6.972;2023-08-24T08:53:28;100639.88;;;23.41;100.00
11710;BME280;5911;51.036;6.972;2023-08-24T08:55:56;100630.34;;;23.45;100.00
11710;BME280;5911;51.036;6.972;2023-08-24T08:58:31;100634.06;;;23.50;100.00
11710;BME280;5911;51.036;6.972;2023-08-24T09:00:59;100635.94;;;23.57;100.00
11710;BME280;5911;51.036;6.972;2023-08-24T09:03:31;100622.91;;;23.60;100.00
11710;BME280;5911;51.036;6.972;2023-08-24T09:05:59;100627.47;;;23.66;100.00
11710;BME280;5911;51.036;6.972;2023-08-24T09:08:28;100617.47;;;23.73;100.00
11710;BME280;5911;51.036;6.972;2023-08-24T09:10:58;100615.00;;;23.78;100.00
11710;BME280;5911;51.036;6.972;2023-08-24T09:13:25;100603.78;;;23.81;100.00
11710;BME280;5911;51.036;6.972;2023-08-24T09:15:53;100595.88;;;23.87;100.00
11710;BME280;5911;51.036;6.972;2023-08-24T09:18:21;100583.22;;;23.94;100.00
11710;BME280;5911;51.036;6.972;2023-08-24T09:20:51;100574.88;;;24.02;100.00
11710;BME280;5911;51.036;6.972;2023-08-24T09:23:19;100561.81;;;24.05;100.00
11710;BME280;5911;51.036;6.972;2023-08-24T09:25:47;100553.09;;;24.10;100.00
11710;BME280;5911;51.036;6.972;2023-08-24T09:28:22;100536.50;;;24.13;100.00
11710;BME280;5911;51.036;6.972;2023-08-24T09:30:52;100535.59;;;24.19;100.00
11710;BME280;5911;51.036;6.972;2023-08-24T09:33:21;100531.47;;;24.23;100.00
11710;BME280;5911;51.036;6.972;2023-08-24T09:35:54;100530.59;;;24.29;100.00
11710;BME280;5911;51.036;6.972;2023-08-24T09:38:27;100522.47;;;24.36;100.00
11710;BME280;5911;51.036;6.972;2023-08-24T09:40:56;100509.59;;;24.38;100.00
11710;BME280;5911;51.036;6.972;2023-08-24T09:43:23;100510.16;;;24.46;100.00
11710;BME280;5911;51.036;6.972;2023-08-24T09:45:53;100521.34;;;24.50;100.00
11710;BME280;5911;51.036;6.972;2023-08-24T09:48:22;100518.63;;;24.50;100.00
11710;BME280;5911;51.036;6.972;2023-08-24T09:50:56;100524.38;;;24.60;100.00
11710;BME280;5911;51.036;6.972;2023-08-24T09:53:24;100541.56;;;24.66;100.00
11710;BME280;5911;51.036;6.972;2023-08-24T09:55:54;100531.19;;;24.63;100.00
11710;BME280;5911;51.036;6.972;2023-08-24T09:58:23;100541.94;;;24.69;100.00
11710;BME280;5911;51.036;6.972;2023-08-24T10:00:52;100551.06;;;24.75;100.00
11710;BME280;5911;51.036;6.972;2023-08-24T10:03:24;100550.59;;;24.78;100.00
11710;BME280;5911;51.036;6.972;2023-08-24T10:05:55;100545.19;;;24.78;100.00
11710;BME280;5911;51.036;6.972;2023-08-24T10:08:35;100558.56;;;24.91;100.00
11710;BME280;5911;51.036;6.972;2023-08-24T10:11:03;100553.78;;;24.93;100.00
11710;BME280;5911;51.036;6.972;2023-08-24T10:13:38;100538.84;;;24.97;100.00
11710;BME280;5911;51.036;6.972;2023-08-24T10:16:07;100544.25;;;24.97;100.00
11710;BME280;5911;51.036;6.972;2023-08-24T10:18:36;100557.09;;;25.02;100.00
11710;BME280;5911;51.036;6.972;2023-08-24T10:21:05;100567.81;;;25.08;100.00
11710;BME280;5911;51.036;6.972;2023-08-24T10:23:35;100565.28;;;25.13;100.00
11710;BME280;5911;51.036;6.972;2023-08-24T10:26:06;100563.94;;;25.22;100.00
11710;BME280;5911;51.036;6.972;2023-08-24T10:28:36;100563.94;;;25.22;100.00
11710;BME280;5911;51.036;6.972;2023-08-24T10:31:05;100569.72;;;25.26;100.00
11710;BME280;5911;51.036;6.972;2023-08-24T10:33:33;100570.13;;;25.30;100.00
11710;BME280;5911;51.036;6.972;2023-08-24T10:36:06;100570.13;;;25.30;100.00
11710;BME280;5911;51.036;6.972;2023-08-24T10:38:35;100581.31;;;25.33;100.00
11710;BME280;5911;51.036;6.972;2023-08-24T10:41:07;100575.06;;;25.33;100.00
11710;BME280;5911;51.036;6.972;2023-08-24T10:43:35;100582.56;;;25.31;100.00
11710;BME280;5911;51.036;6.972;2023-08-24T10:46:03;100589.41;;;25.33;100.00
11710;BME280;5911;51.036;6.972;2023-08-24T10:48:57;100588.13;;;25.36;100.00
11710;BME280;5911;51.036;6.972;2023-08-24T10:51:27;100585.06;;;25.32;100.00
11710;BME280;5911;51.036;6.972;2023-08-24T10:53:57;100590.00;;;25.35;100.00
11710;BME280;5911;51.036;6.972;2023-08-24T10:56:35;100589.94;;;25.42;100.00
11710;BME280;5911;51.036;6.972;2023-08-24T10:59:11;100582.00;;;25.47;100.00
11710;BME280;5911;51.036;6.972;2023-08-24T11:01:41;100572.41;;;25.51;100.00
11710;BME280;5911;51.036;6.972;2023-08-24T11:04:10;100566.69;;;25.59;100.00
11710;BME280;5911;51.036;6.972;2023-08-24T11:06:55;100566.47;;;25.61;100.00
11710;BME280;5911;51.036;6.972;2023-08-24T11:09:23;100553.97;;;25.66;100.00
11710;BME280;5911;51.036;6.972;2023-08-24T11:11:59;100558.91;;;25.69;100.00
11710;BME280;5911;51.036;6.972;2023-08-24T11:14:27;100552.59;;;25.75;98.60
11710;BME280;5911;51.036;6.972;2023-08-24T11:16:58;100550.06;;;25.80;100.00
11710;BME280;5911;51.036;6.972;2023-08-24T11:19:26;100541.25;;;25.85;99.72
11710;BME280;5911;51.036;6.972;2023-08-24T11:21:55;100544.41;;;25.82;98.77
11710;BME280;5911;51.036;6.972;2023-08-24T11:24:24;100543.72;;;25.86;97.99
11710;BME280;5911;51.036;6.972;2023-08-24T11:26:52;100549.56;;;25.83;94.96
11710;BME280;5911;51.036;6.972;2023-08-24T11:29:20;100554.03;;;25.78;94.71
11710;BME280;5911;51.036;6.972;2023-08-24T11:31:47;100571.97;;;25.72;94.72
11710;BME280;5911;51.036;6.972;2023-08-24T11:34:15;100570.19;;;25.66;97.02
11710;BME280;5911;51.036;6.972;2023-08-24T11:36:45;100576.03;;;25.63;96.24
11710;BME280;5911;51.036;6.972;2023-08-24T11:39:19;100588.91;;;25.61;95.16
11710;BME280;5911;51.036;6.972;2023-08-24T11:41:57;100590.59;;;25.62;95.42
11710;BME280;5911;51.036;6.972;2023-08-24T11:44:24;100596.00;;;25.62;93.17
11710;BME280;5911;51.036;6.972;2023-08-24T11:46:56;100589.19;;;25.53;89.41
11710;BME280;5911;51.036;6.972;2023-08-24T11:49:24;100611.50;;;25.67;88.47
11710;BME280;5911;51.036;6.972;2023-08-24T11:51:51;100618.34;;;25.69;87.22
11710;BME280;5911;51.036;6.972;2023-08-24T11:54:21;100622.94;;;25.69;88.47
11710;BME280;5911;51.036;6.972;2023-08-24T11:56:49;100627.38;;;25.63;90.31
11710;BME280;5911;51.036;6.972;2023-08-24T11:59:17;100603.16;;;25.50;89.40
11710;BME280;5911;51.036;6.972;2023-08-24T12:01:45;100611.78;;;25.65;90.06
11710;BME280;5911;51.036;6.972;2023-08-24T12:04:17;100619.94;;;25.77;92.10
11710;BME280;5911;51.036;6.972;2023-08-24T12:06:44;100617.25;;;25.77;93.54
11710;BME280;5911;51.036;6.972;2023-08-24T12:09:12;100608.16;;;25.71;94.26
11710;BME280;5911;51.036;6.972;2023-08-24T12:11:43;100597.66;;;25.63;97.15
11710;BME280;5911;51.036;6.972;2023-08-24T12:14:16;100586.47;;;25.53;100.00
11710;BME280;5911;51.036;6.972;2023-08-24T12:16:47;100587.78;;;25.50;97.04
11710;BME280;5911;51.036;6.972;2023-08-24T12:19:21;100565.84;;;25.40;95.31
11710;BME280;5911;51.036;6.972;2023-08-24T12:21:50;100577.31;;;25.54;100.00
11710;BME280;5911;51.036;6.972;2023-08-24T12:24:24;100558.13;;;25.44;100.00
11710;BME280;5911;51.036;6.972;2023-08-24T12:26:58;100557.50;;;25.42;100.00
11710;BME280;5911;51.036;6.972;2023-08-24T12:29:34;100515.25;;;25.11;100.00
11710;BME280;5911;51.036;6.972;2023-08-24T12:32:14;100541.00;;;25.32;100.00
11710;BME280;5911;51.036;6.972;2023-08-24T12:34:46;100525.22;;;25.10;100.00
11710;BME280;5911;51.036;6.972;2023-08-24T12:37:14;100523.41;;;25.04;100.00
11710;BME280;5911;51.036;6.972;2023-08-24T12:39:51;100487.03;;;24.82;100.00
11710;BME280;5911;51.036;6.972;2023-08-24T12:42:25;100529.88;;;25.03;100.00
11710;BME280;5911;51.036;6.972;2023-08-24T12:44:53;100475.03;;;24.78;100.00
11710;BME280;5911;51.036;6.972;2023-08-24T12:47:22;100473.38;;;24.77;100.00
11710;BME280;5911;51.036;6.972;2023-08-24T12:49:53;100486.81;;;24.83;100.00
11710;BME280;5911;51.036;6.972;2023-08-24T12:52:24;100441.13;;;24.64;100.00
11710;BME280;5911;51.036;6.972;2023-08-24T12:55:01;100472.88;;;24.86;100.00
11710;BME280;5911;51.036;6.972;2023-08-24T12:57:34;100455.31;;;24.77;100.00
11710;BME280;5911;51.036;6.972;2023-08-24T13:00:03;100436.38;;;24.84;100.00
11710;BME280;5911;51.036;6.972;2023-08-24T13:02:32;100429.72;;;24.86;100.00
11710;BME280;5911;51.036;6.972;2023-08-24T13:05:08;100421.41;;;24.88;100.00